sensor_id;sensor_type;location;lat;lon;timestamp;P1;durP1;ratioP1;P2;durP2;ratioP2
69906;SDS011;57190;47.918;8.112;2023-05-07T00:00:18;1.42;;;1.20;;
69906;SDS011;57190;47.918;8.112;2023-05-07T00:02:44;1.77;;;1.60;;
69906;SDS011;57190;47.918;8.112;2023-05-07T00:05:11;1.27;;;1.17;;
69906;SDS011;57190;47.918;8.112;2023-05-07T00:07:36;2.65;;;1.65;;
69906;SDS011;57190;47.918;8.112;2023-05-07T00:10:03;1.65;;;1.50;;
69906;SDS011;57190;47.918;8.112;2023-05-07T00:12:29;1.90;;;1.55;;
69906;SDS011;57190;47.918;8.112;2023-05-07T00:14:59;3.35;;;1.55;;
69906;SDS011;57190;47.918;8.112;2023-05-07T00:17:25;1.35;;;1.25;;
69906;SDS011;57190;47.918;8.112;2023-05-07T00:19:51;1.85;;;1.42;;
69906;SDS011;57190;47.918;8.112;2023-05-07T00:22:18;1.92;;;1.70;;
69906;SDS011;57190;47.918;8.112;2023-05-07T00:24:44;6.05;;;1.80;;
69906;SDS011;57190;47.918;8.112;2023-05-07T00:27:10;1.65;;;1.55;;
69906;SDS011;57190;47.918;8.112;2023-05-07T00:29:35;2.65;;;1.65;;
69906;SDS011;57190;47.918;8.112;2023-05-07T00:32:01;2.00;;;1.90;;
69906;SDS011;57190;47.918;8.112;2023-05-07T00:34:30;2.08;;;1.50;;
69906;SDS011;57190;47.918;8.112;2023-05-07T00:36:56;2.47;;;1.58;;
69906;SDS011;57190;47.918;8.112;2023-05-07T00:39:21;3.55;;;1.90;;
69906;SDS011;57190;47.918;8.112;2023-05-07T00:41:47;2.17;;;1.98;;
69906;SDS011;57190;47.918;8.112;2023-05-07T00:44:13;2.10;;;1.85;;
69906;SDS011;57190;47.918;8.112;2023-05-07T00:46:42;1.50;;;1.40;;
69906;SDS011;57190;47.918;8.112;2023-05-07T00:49:09;1.73;;;1.63;;
69906;SDS011;57190;47.918;8.112;2023-05-07T00:51:36;2.17;;;1.40;;
69906;SDS011;57190;47.918;8.112;2023-05-07T00:54:02;1.45;;;1.35;;
69906;SDS011;57190;47.918;8.112;2023-05-07T00:56:28;1.77;;;1.63;;
69906;SDS011;57190;47.918;8.112;2023-05-07T00:58:54;1.60;;;1.50;;
69906;SDS011;57190;47.918;8.112;2023-05-07T01:01:20;1.45;;;1.35;;
69906;SDS011;57190;47.918;8.112;2023-05-07T01:03:46;1.63;;;1.52;;
69906;SDS011;57190;47.918;8.112;2023-05-07T01:06:11;1.58;;;1.48;;
69906;SDS011;57190;47.918;8.112;2023-05-07T01:08:41;1.73;;;1.63;;
69906;SDS011;57190;47.918;8.112;2023-05-07T01:11:08;1.42;;;1.33;;
69906;SDS011;57190;47.918;8.112;2023-05-07T01:13:37;1.67;;;1.58;;
69906;SDS011;57190;47.918;8.112;2023-05-07T01:16:04;2.92;;;1.70;;
69906;SDS011;57190;47.918;8.112;2023-05-07T01:18:30;2.03;;;1.83;;
69906;SDS011;57190;47.918;8.112;2023-05-07T01:20:56;1.50;;;1.40;;
69906;SDS011;57190;47.918;8.112;2023-05-07T01:23:23;1.77;;;1.67;;
69906;SDS011;57190;47.918;8.112;2023-05-07T01:25:52;2.92;;;1.55;;
69906;SDS011;57190;47.918;8.112;2023-05-07T01:28:18;1.83;;;1.73;;
69906;SDS011;57190;47.918;8.112;2023-05-07T01:30:46;3.25;;;1.75;;
69906;SDS011;57190;47.918;8.112;2023-05-07T01:33:18;1.73;;;1.63;;
69906;SDS011;57190;47.918;8.112;2023-05-07T01:35:56;1.35;;;1.25;;
69906;SDS011;57190;47.918;8.112;2023-05-07T01:38:25;2.13;;;1.65;;
69906;SDS011;57190;47.918;8.112;2023-05-07T01:40:51;1.70;;;1.60;;
69906;SDS011;57190;47.918;8.112;2023-05-07T01:43:18;1.65;;;1.55;;
69906;SDS011;57190;47.918;8.112;2023-05-07T01:45:47;1.73;;;1.63;;
69906;SDS011;57190;47.918;8.112;2023-05-07T01:48:17;1.83;;;1.73;;
69906;SDS011;57190;47.918;8.112;2023-05-07T01:50:46;2.20;;;1.70;;
69906;SDS011;57190;47.918;8.112;2023-05-07T01:53:13;1.98;;;1.50;;
69906;SDS011;57190;47.918;8.112;2023-05-07T01:55:41;1.88;;;1.77;;
69906;SDS011;57190;47.918;8.112;2023-05-07T01:58:06;1.70;;;1.60;;
69906;SDS011;57190;47.918;8.112;2023-05-07T02:00:32;3.03;;;1.63;;
69906;SDS011;57190;47.918;8.112;2023-05-07T02:02:58;2.35;;;1.55;;
69906;SDS011;57190;47.918;8.112;2023-05-07T02:05:23;1.70;;;1.60;;
69906;SDS011;57190;47.918;8.112;2023-05-07T02:07:49;1.90;;;1.40;;
69906;SDS011;57190;47.918;8.112;2023-05-07T02:10:15;1.58;;;1.48;;
69906;SDS011;57190;47.918;8.112;2023-05-07T02:12:40;1.75;;;1.65;;
69906;SDS011;57190;47.918;8.112;2023-05-07T02:15:06;1.80;;;1.65;;
69906;SDS011;57190;47.918;8.112;2023-05-07T02:17:32;1.83;;;1.73;;
69906;SDS011;57190;47.918;8.112;2023-05-07T02:20:01;2.42;;;1.48;;
69906;SDS011;57190;47.918;8.112;2023-05-07T02:22:29;1.92;;;1.70;;
69906;SDS011;57190;47.918;8.112;2023-05-07T02:24:55;3.00;;;1.70;;
69906;SDS011;57190;47.918;8.112;2023-05-07T02:27:21;2.10;;;1.85;;
69906;SDS011;57190;47.918;8.112;2023-05-07T02:29:49;1.85;;;1.73;;
69906;SDS011;57190;47.918;8.112;2023-05-07T02:32:15;1.67;;;1.58;;
69906;SDS011;57190;47.918;8.112;2023-05-07T02:34:40;1.90;;;1.80;;
69906;SDS011;57190;47.918;8.112;2023-05-07T02:37:06;2.42;;;2.00;;
69906;SDS011;57190;47.918;8.112;2023-05-07T02:39:34;1.63;;;1.52;;
69906;SDS011;57190;47.918;8.112;2023-05-07T02:42:00;2.13;;;1.92;;
69906;SDS011;57190;47.918;8.112;2023-05-07T02:44:28;2.38;;;1.88;;
69906;SDS011;57190;47.918;8.112;2023-05-07T02:46:57;2.05;;;1.60;;
69906;SDS011;57190;47.918;8.112;2023-05-07T02:49:22;2.20;;;2.00;;
69906;SDS011;57190;47.918;8.112;2023-05-07T02:51:51;1.95;;;1.85;;
69906;SDS011;57190;47.918;8.112;2023-05-07T02:54:16;2.20;;;2.10;;
69906;SDS011;57190;47.918;8.112;2023-05-07T02:56:43;3.63;;;2.50;;
69906;SDS011;57190;47.918;8.112;2023-05-07T02:59:08;1.75;;;1.65;;
69906;SDS011;57190;47.918;8.112;2023-05-07T03:01:33;2.20;;;2.08;;
69906;SDS011;57190;47.918;8.112;2023-05-07T03:03:59;3.67;;;2.08;;
69906;SDS011;57190;47.918;8.112;2023-05-07T03:06:25;2.13;;;2.00;;
69906;SDS011;57190;47.918;8.112;2023-05-07T03:08:51;2.97;;;1.98;;
69906;SDS011;57190;47.918;8.112;2023-05-07T03:11:16;2.97;;;2.03;;
69906;SDS011;57190;47.918;8.112;2023-05-07T03:13:42;2.40;;;2.30;;
69906;SDS011;57190;47.918;8.112;2023-05-07T03:16:07;2.58;;;2.38;;
69906;SDS011;57190;47.918;8.112;2023-05-07T03:18:34;2.35;;;2.15;;
69906;SDS011;57190;47.918;8.112;2023-05-07T03:20:59;1.83;;;1.73;;
69906;SDS011;57190;47.918;8.112;2023-05-07T03:23:25;2.10;;;1.90;;
69906;SDS011;57190;47.918;8.112;2023-05-07T03:25:50;1.85;;;1.75;;
69906;SDS011;57190;47.918;8.112;2023-05-07T03:28:17;2.08;;;1.98;;
69906;SDS011;57190;47.918;8.112;2023-05-07T03:30:42;2.05;;;1.95;;
69906;SDS011;57190;47.918;8.112;2023-05-07T03:33:08;2.20;;;2.05;;
69906;SDS011;57190;47.918;8.112;2023-05-07T03:35:33;3.47;;;1.80;;
69906;SDS011;57190;47.918;8.112;2023-05-07T03:37:59;2.40;;;2.20;;
69906;SDS011;57190;47.918;8.112;2023-05-07T03:40:25;2.20;;;1.92;;
69906;SDS011;57190;47.918;8.112;2023-05-07T03:42:50;2.38;;;2.00;;
69906;SDS011;57190;47.918;8.112;2023-05-07T03:45:16;2.17;;;1.95;;
69906;SDS011;57190;47.918;8.112;2023-05-07T03:47:42;2.95;;;2.13;;
69906;SDS011;57190;47.918;8.112;2023-05-07T03:50:07;2.40;;;2.20;;
69906;SDS011;57190;47.918;8.112;2023-05-07T03:52:33;1.85;;;1.75;;
69906;SDS011;57190;47.918;8.112;2023-05-07T03:55:00;2.05;;;1.95;;
69906;SDS011;57190;47.918;8.112;2023-05-07T03:57:25;2.15;;;2.05;;
69906;SDS011;57190;47.918;8.112;2023-05-07T03:59:51;2.22;;;2.08;;
69906;SDS011;57190;47.918;8.112;2023-05-07T04:02:16;1.95;;;1.85;;
69906;SDS011;57190;47.918;8.112;2023-05-07T04:04:42;2.75;;;2.03;;
69906;SDS011;57190;47.918;8.112;2023-05-07T04:07:07;2.47;;;2.28;;
69906;SDS011;57190;47.918;8.112;2023-05-07T04:09:33;2.30;;;2.10;;
69906;SDS011;57190;47.918;8.112;2023-05-07T04:11:58;2.83;;;2.03;;
69906;SDS011;57190;47.918;8.112;2023-05-07T04:14:24;3.13;;;2.40;;
69906;SDS011;57190;47.918;8.112;2023-05-07T04:16:49;2.40;;;2.30;;
69906;SDS011;57190;47.918;8.112;2023-05-07T04:19:15;2.35;;;1.88;;
69906;SDS011;57190;47.918;8.112;2023-05-07T04:21:40;2.75;;;2.50;;
69906;SDS011;57190;47.918;8.112;2023-05-07T04:24:06;2.53;;;2.30;;
69906;SDS011;57190;47.918;8.112;2023-05-07T04:26:32;2.08;;;1.75;;
69906;SDS011;57190;47.918;8.112;2023-05-07T04:28:57;2.20;;;2.10;;
69906;SDS011;57190;47.918;8.112;2023-05-07T04:31:24;2.60;;;2.40;;
69906;SDS011;57190;47.918;8.112;2023-05-07T04:33:49;2.28;;;2.08;;
69906;SDS011;57190;47.918;8.112;2023-05-07T04:36:16;2.40;;;2.20;;
69906;SDS011;57190;47.918;8.112;2023-05-07T04:38:42;2.90;;;2.45;;
69906;SDS011;57190;47.918;8.112;2023-05-07T04:41:08;4.07;;;2.47;;
69906;SDS011;57190;47.918;8.112;2023-05-07T04:43:34;3.15;;;2.90;;
69906;SDS011;57190;47.918;8.112;2023-05-07T04:46:00;3.10;;;2.75;;
69906;SDS011;57190;47.918;8.112;2023-05-07T04:48:25;2.30;;;2.10;;
69906;SDS011;57190;47.918;8.112;2023-05-07T04:50:51;2.40;;;2.20;;
69906;SDS011;57190;47.918;8.112;2023-05-07T04:53:17;2.17;;;1.98;;
69906;SDS011;57190;47.918;8.112;2023-05-07T04:55:43;2.03;;;1.83;;
69906;SDS011;57190;47.918;8.112;2023-05-07T04:58:10;1.75;;;1.65;;
69906;SDS011;57190;47.918;8.112;2023-05-07T05:00:36;1.70;;;1.60;;
69906;SDS011;57190;47.918;8.112;2023-05-07T05:03:01;1.83;;;1.73;;
69906;SDS011;57190;47.918;8.112;2023-05-07T05:05:27;2.45;;;2.00;;
69906;SDS011;57190;47.918;8.112;2023-05-07T05:07:52;2.58;;;2.38;;
69906;SDS011;57190;47.918;8.112;2023-05-07T05:10:18;4.55;;;4.18;;
69906;SDS011;57190;47.918;8.112;2023-05-07T05:12:43;2.20;;;1.83;;
69906;SDS011;57190;47.918;8.112;2023-05-07T05:15:10;2.05;;;1.90;;
69906;SDS011;57190;47.918;8.112;2023-05-07T05:17:37;2.30;;;1.40;;
69906;SDS011;57190;47.918;8.112;2023-05-07T05:20:03;2.90;;;1.70;;
69906;SDS011;57190;47.918;8.112;2023-05-07T05:22:32;2.17;;;1.98;;
69906;SDS011;57190;47.918;8.112;2023-05-07T05:24:58;2.00;;;1.73;;
69906;SDS011;57190;47.918;8.112;2023-05-07T05:27:24;2.25;;;1.70;;
69906;SDS011;57190;47.918;8.112;2023-05-07T05:29:49;1.90;;;1.80;;
69906;SDS011;57190;47.918;8.112;2023-05-07T05:32:15;2.38;;;2.17;;
69906;SDS011;57190;47.918;8.112;2023-05-07T05:34:40;1.98;;;1.88;;
69906;SDS011;57190;47.918;8.112;2023-05-07T05:37:06;2.22;;;2.13;;
69906;SDS011;57190;47.918;8.112;2023-05-07T05:39:32;2.92;;;2.65;;
69906;SDS011;57190;47.918;8.112;2023-05-07T05:41:57;2.50;;;2.40;;
69906;SDS011;57190;47.918;8.112;2023-05-07T05:44:23;2.20;;;2.10;;
69906;SDS011;57190;47.918;8.112;2023-05-07T05:46:50;2.47;;;1.80;;
69906;SDS011;57190;47.918;8.112;2023-05-07T05:49:15;2.42;;;2.00;;
69906;SDS011;57190;47.918;8.112;2023-05-07T05:51:41;3.25;;;1.67;;
69906;SDS011;57190;47.918;8.112;2023-05-07T05:54:08;1.92;;;1.83;;
69906;SDS011;57190;47.918;8.112;2023-05-07T05:56:34;1.98;;;1.88;;
69906;SDS011;57190;47.918;8.112;2023-05-07T05:58:59;2.75;;;2.55;;
69906;SDS011;57190;47.918;8.112;2023-05-07T06:01:25;2.53;;;2.33;;
69906;SDS011;57190;47.918;8.112;2023-05-07T06:03:53;2.40;;;2.20;;
69906;SDS011;57190;47.918;8.112;2023-05-07T06:06:18;2.20;;;2.00;;
69906;SDS011;57190;47.918;8.112;2023-05-07T06:08:46;2.35;;;2.08;;
69906;SDS011;57190;47.918;8.112;2023-05-07T06:11:12;2.28;;;2.08;;
69906;SDS011;57190;47.918;8.112;2023-05-07T06:13:38;2.17;;;2.08;;
69906;SDS011;57190;47.918;8.112;2023-05-07T06:16:04;3.40;;;2.67;;
69906;SDS011;57190;47.918;8.112;2023-05-07T06:18:30;2.65;;;2.05;;
69906;SDS011;57190;47.918;8.112;2023-05-07T06:20:56;2.05;;;1.90;;
69906;SDS011;57190;47.918;8.112;2023-05-07T06:23:21;2.35;;;2.15;;
69906;SDS011;57190;47.918;8.112;2023-05-07T06:25:50;2.60;;;2.40;;
69906;SDS011;57190;47.918;8.112;2023-05-07T06:28:17;3.55;;;3.15;;
69906;SDS011;57190;47.918;8.112;2023-05-07T06:30:43;3.25;;;2.95;;
69906;SDS011;57190;47.918;8.112;2023-05-07T06:33:10;3.75;;;2.83;;
69906;SDS011;57190;47.918;8.112;2023-05-07T06:35:35;3.13;;;2.92;;
69906;SDS011;57190;47.918;8.112;2023-05-07T06:38:01;3.22;;;2.92;;
69906;SDS011;57190;47.918;8.112;2023-05-07T06:40:27;3.35;;;3.05;;
69906;SDS011;57190;47.918;8.112;2023-05-07T06:42:53;4.05;;;3.28;;
69906;SDS011;57190;47.918;8.112;2023-05-07T06:45:19;6.55;;;3.75;;
69906;SDS011;57190;47.918;8.112;2023-05-07T06:47:45;3.55;;;3.25;;
69906;SDS011;57190;47.918;8.112;2023-05-07T06:52:58;2.55;;;2.33;;
69906;SDS011;57190;47.918;8.112;2023-05-07T06:55:24;2.60;;;2.40;;
69906;SDS011;57190;47.918;8.112;2023-05-07T06:57:50;2.58;;;2.28;;
69906;SDS011;57190;47.918;8.112;2023-05-07T07:00:16;2.88;;;2.03;;
69906;SDS011;57190;47.918;8.112;2023-05-07T07:02:42;2.00;;;1.90;;
69906;SDS011;57190;47.918;8.112;2023-05-07T07:08:11;1.85;;;1.63;;
69906;SDS011;57190;47.918;8.112;2023-05-07T07:10:39;2.88;;;1.65;;
69906;SDS011;57190;47.918;8.112;2023-05-07T07:13:05;1.80;;;1.70;;
69906;SDS011;57190;47.918;8.112;2023-05-07T07:15:35;2.45;;;1.70;;
69906;SDS011;57190;47.918;8.112;2023-05-07T07:18:01;2.53;;;1.75;;
69906;SDS011;57190;47.918;8.112;2023-05-07T07:20:28;1.50;;;1.40;;
69906;SDS011;57190;47.918;8.112;2023-05-07T07:22:54;1.63;;;1.40;;
69906;SDS011;57190;47.918;8.112;2023-05-07T07:25:20;1.80;;;1.70;;
69906;SDS011;57190;47.918;8.112;2023-05-07T07:27:45;1.65;;;1.52;;
69906;SDS011;57190;47.918;8.112;2023-05-07T07:30:11;1.80;;;1.70;;
69906;SDS011;57190;47.918;8.112;2023-05-07T07:32:36;2.58;;;1.48;;
69906;SDS011;57190;47.918;8.112;2023-05-07T07:35:05;1.17;;;1.08;;
69906;SDS011;57190;47.918;8.112;2023-05-07T07:37:31;2.47;;;1.90;;
69906;SDS011;57190;47.918;8.112;2023-05-07T07:39:56;1.90;;;1.80;;
69906;SDS011;57190;47.918;8.112;2023-05-07T07:42:22;1.50;;;1.40;;
69906;SDS011;57190;47.918;8.112;2023-05-07T07:44:47;2.40;;;1.83;;
69906;SDS011;57190;47.918;8.112;2023-05-07T07:47:14;1.77;;;1.63;;
69906;SDS011;57190;47.918;8.112;2023-05-07T07:49:40;1.90;;;1.80;;
69906;SDS011;57190;47.918;8.112;2023-05-07T07:52:05;2.10;;;1.80;;
69906;SDS011;57190;47.918;8.112;2023-05-07T07:54:31;1.90;;;1.77;;
69906;SDS011;57190;47.918;8.112;2023-05-07T07:56:58;1.73;;;1.63;;
69906;SDS011;57190;47.918;8.112;2023-05-07T07:59:24;2.38;;;1.80;;
69906;SDS011;57190;47.918;8.112;2023-05-07T08:01:50;1.67;;;1.58;;
69906;SDS011;57190;47.918;8.112;2023-05-07T08:04:17;2.20;;;1.98;;
69906;SDS011;57190;47.918;8.112;2023-05-07T08:06:43;2.28;;;1.90;;
69906;SDS011;57190;47.918;8.112;2023-05-07T08:09:08;2.28;;;1.83;;
69906;SDS011;57190;47.918;8.112;2023-05-07T08:11:34;1.40;;;1.30;;
69906;SDS011;57190;47.918;8.112;2023-05-07T08:13:59;1.60;;;1.50;;
69906;SDS011;57190;47.918;8.112;2023-05-07T08:16:25;1.95;;;1.60;;
69906;SDS011;57190;47.918;8.112;2023-05-07T08:18:51;1.60;;;1.50;;
69906;SDS011;57190;47.918;8.112;2023-05-07T08:21:16;2.78;;;1.45;;
69906;SDS011;57190;47.918;8.112;2023-05-07T08:23:42;1.52;;;1.42;;
69906;SDS011;57190;47.918;8.112;2023-05-07T08:26:08;1.40;;;1.30;;
69906;SDS011;57190;47.918;8.112;2023-05-07T08:28:33;1.67;;;1.45;;
69906;SDS011;57190;47.918;8.112;2023-05-07T08:31:00;2.15;;;1.60;;
69906;SDS011;57190;47.918;8.112;2023-05-07T08:33:26;2.17;;;1.77;;
69906;SDS011;57190;47.918;8.112;2023-05-07T08:35:52;2.47;;;1.50;;
69906;SDS011;57190;47.918;8.112;2023-05-07T08:38:17;1.77;;;1.67;;
69906;SDS011;57190;47.918;8.112;2023-05-07T08:40:43;1.38;;;1.25;;
69906;SDS011;57190;47.918;8.112;2023-05-07T08:43:08;2.47;;;1.60;;
69906;SDS011;57190;47.918;8.112;2023-05-07T08:45:37;1.30;;;1.20;;
69906;SDS011;57190;47.918;8.112;2023-05-07T08:48:08;2.58;;;1.42;;
69906;SDS011;57190;47.918;8.112;2023-05-07T08:50:38;1.50;;;1.40;;
69906;SDS011;57190;47.918;8.112;2023-05-07T08:53:03;1.63;;;1.50;;
69906;SDS011;57190;47.918;8.112;2023-05-07T08:55:30;2.97;;;1.55;;
69906;SDS011;57190;47.918;8.112;2023-05-07T08:57:56;1.52;;;1.30;;
69906;SDS011;57190;47.918;8.112;2023-05-07T09:00:22;1.58;;;1.30;;
69906;SDS011;57190;47.918;8.112;2023-05-07T09:02:47;1.65;;;1.55;;
69906;SDS011;57190;47.918;8.112;2023-05-07T09:05:13;1.60;;;1.30;;
69906;SDS011;57190;47.918;8.112;2023-05-07T09:07:39;1.75;;;1.48;;
69906;SDS011;57190;47.918;8.112;2023-05-07T09:10:04;1.65;;;1.45;;
69906;SDS011;57190;47.918;8.112;2023-05-07T09:12:31;1.70;;;1.60;;
69906;SDS011;57190;47.918;8.112;2023-05-07T09:14:56;2.60;;;1.45;;
69906;SDS011;57190;47.918;8.112;2023-05-07T09:17:22;1.70;;;1.60;;
69906;SDS011;57190;47.918;8.112;2023-05-07T09:19:47;2.85;;;1.63;;
69906;SDS011;57190;47.918;8.112;2023-05-07T09:22:13;2.00;;;1.40;;
69906;SDS011;57190;47.918;8.112;2023-05-07T09:24:39;2.78;;;1.80;;
69906;SDS011;57190;47.918;8.112;2023-05-07T09:27:05;1.60;;;1.50;;
69906;SDS011;57190;47.918;8.112;2023-05-07T09:29:33;1.30;;;1.20;;
69906;SDS011;57190;47.918;8.112;2023-05-07T09:32:02;2.25;;;1.60;;
69906;SDS011;57190;47.918;8.112;2023-05-07T09:34:31;1.45;;;1.30;;
69906;SDS011;57190;47.918;8.112;2023-05-07T09:37:01;1.63;;;1.52;;
69906;SDS011;57190;47.918;8.112;2023-05-07T09:39:38;2.10;;;1.48;;
69906;SDS011;57190;47.918;8.112;2023-05-07T09:42:06;1.30;;;1.15;;
69906;SDS011;57190;47.918;8.112;2023-05-07T09:44:32;5.43;;;1.50;;
69906;SDS011;57190;47.918;8.112;2023-05-07T09:46:59;1.75;;;1.60;;
69906;SDS011;57190;47.918;8.112;2023-05-07T09:49:25;4.00;;;1.65;;
69906;SDS011;57190;47.918;8.112;2023-05-07T09:51:57;2.25;;;1.65;;
69906;SDS011;57190;47.918;8.112;2023-05-07T09:54:25;3.70;;;1.65;;
69906;SDS011;57190;47.918;8.112;2023-05-07T09:56:53;5.50;;;2.67;;
69906;SDS011;57190;47.918;8.112;2023-05-07T09:59:20;3.35;;;2.30;;
69906;SDS011;57190;47.918;8.112;2023-05-07T10:01:47;5.45;;;2.88;;
69906;SDS011;57190;47.918;8.112;2023-05-07T10:04:14;3.22;;;2.58;;
69906;SDS011;57190;47.918;8.112;2023-05-07T10:06:40;5.30;;;2.60;;
69906;SDS011;57190;47.918;8.112;2023-05-07T10:09:08;2.97;;;2.50;;
69906;SDS011;57190;47.918;8.112;2023-05-07T10:11:34;3.22;;;2.63;;
69906;SDS011;57190;47.918;8.112;2023-05-07T10:14:01;2.33;;;2.10;;
69906;SDS011;57190;47.918;8.112;2023-05-07T10:16:32;3.45;;;2.60;;
69906;SDS011;57190;47.918;8.112;2023-05-07T10:19:05;2.88;;;2.20;;
69906;SDS011;57190;47.918;8.112;2023-05-07T10:21:33;3.85;;;3.47;;
69906;SDS011;57190;47.918;8.112;2023-05-07T10:26:40;3.70;;;3.22;;
69906;SDS011;57190;47.918;8.112;2023-05-07T10:29:18;3.78;;;3.45;;
69906;SDS011;57190;47.918;8.112;2023-05-07T10:34:49;3.67;;;3.38;;
69906;SDS011;57190;47.918;8.112;2023-05-07T10:37:18;3.60;;;3.30;;
69906;SDS011;57190;47.918;8.112;2023-05-07T10:39:44;2.13;;;1.92;;
69906;SDS011;57190;47.918;8.112;2023-05-07T10:42:10;2.78;;;2.00;;
69906;SDS011;57190;47.918;8.112;2023-05-07T10:44:37;1.80;;;1.70;;
69906;SDS011;57190;47.918;8.112;2023-05-07T10:47:07;1.90;;;1.80;;
69906;SDS011;57190;47.918;8.112;2023-05-07T10:52:32;1.60;;;1.50;;
69906;SDS011;57190;47.918;8.112;2023-05-07T10:55:39;3.20;;;1.85;;
69906;SDS011;57190;47.918;8.112;2023-05-07T10:57:46;1.80;;;1.70;;
69906;SDS011;57190;47.918;8.112;2023-05-07T11:05:25;4.22;;;2.10;;
69906;SDS011;57190;47.918;8.112;2023-05-07T11:07:57;2.20;;;2.00;;
69906;SDS011;57190;47.918;8.112;2023-05-07T11:13:42;1.95;;;1.85;;
69906;SDS011;57190;47.918;8.112;2023-05-07T11:16:16;3.30;;;1.92;;
69906;SDS011;57190;47.918;8.112;2023-05-07T11:18:48;2.33;;;1.83;;
69906;SDS011;57190;47.918;8.112;2023-05-07T11:21:37;1.77;;;1.52;;
69906;SDS011;57190;47.918;8.112;2023-05-07T11:24:08;1.67;;;1.58;;
69906;SDS011;57190;47.918;8.112;2023-05-07T11:26:56;2.38;;;1.48;;
69906;SDS011;57190;47.918;8.112;2023-05-07T11:29:21;1.40;;;1.30;;
69906;SDS011;57190;47.918;8.112;2023-05-07T11:31:50;1.70;;;1.33;;
69906;SDS011;57190;47.918;8.112;2023-05-07T11:34:21;1.58;;;1.48;;
69906;SDS011;57190;47.918;8.112;2023-05-07T11:36:48;1.50;;;1.30;;
69906;SDS011;57190;47.918;8.112;2023-05-07T11:39:26;1.27;;;1.17;;
69906;SDS011;57190;47.918;8.112;2023-05-07T11:41:54;1.08;;;1.08;;
69906;SDS011;57190;47.918;8.112;2023-05-07T11:44:20;1.10;;;1.00;;
69906;SDS011;57190;47.918;8.112;2023-05-07T11:46:45;1.27;;;1.20;;
69906;SDS011;57190;47.918;8.112;2023-05-07T11:49:11;2.03;;;1.48;;
69906;SDS011;57190;47.918;8.112;2023-05-07T11:51:37;1.20;;;1.10;;
69906;SDS011;57190;47.918;8.112;2023-05-07T11:54:04;1.52;;;1.42;;
69906;SDS011;57190;47.918;8.112;2023-05-07T11:56:33;1.13;;;0.90;;
69906;SDS011;57190;47.918;8.112;2023-05-07T11:59:00;1.25;;;1.05;;
69906;SDS011;57190;47.918;8.112;2023-05-07T12:01:26;2.90;;;1.20;;
69906;SDS011;57190;47.918;8.112;2023-05-07T12:03:51;0.90;;;0.90;;
69906;SDS011;57190;47.918;8.112;2023-05-07T12:06:17;1.17;;;1.13;;
69906;SDS011;57190;47.918;8.112;2023-05-07T12:08:44;1.00;;;1.00;;
69906;SDS011;57190;47.918;8.112;2023-05-07T12:11:13;1.30;;;1.20;;
69906;SDS011;57190;47.918;8.112;2023-05-07T12:13:46;1.10;;;1.10;;
69906;SDS011;57190;47.918;8.112;2023-05-07T12:16:12;1.35;;;1.23;;
69906;SDS011;57190;47.918;8.112;2023-05-07T12:18:38;1.40;;;1.30;;
69906;SDS011;57190;47.918;8.112;2023-05-07T12:21:04;1.45;;;1.17;;
69906;SDS011;57190;47.918;8.112;2023-05-07T12:23:31;1.88;;;1.67;;
69906;SDS011;57190;47.918;8.112;2023-05-07T12:25:57;1.40;;;1.30;;
69906;SDS011;57190;47.918;8.112;2023-05-07T12:28:22;1.10;;;1.10;;
69906;SDS011;57190;47.918;8.112;2023-05-07T12:30:48;1.50;;;1.40;;
69906;SDS011;57190;47.918;8.112;2023-05-07T12:33:16;1.48;;;1.15;;
69906;SDS011;57190;47.918;8.112;2023-05-07T12:35:43;1.40;;;1.30;;
69906;SDS011;57190;47.918;8.112;2023-05-07T12:38:14;1.08;;;1.02;;
69906;SDS011;57190;47.918;8.112;2023-05-07T12:40:42;1.30;;;1.20;;
69906;SDS011;57190;47.918;8.112;2023-05-07T12:45:46;1.30;;;1.20;;
69906;SDS011;57190;47.918;8.112;2023-05-07T12:48:13;1.40;;;1.30;;
69906;SDS011;57190;47.918;8.112;2023-05-07T12:50:38;1.42;;;1.33;;
69906;SDS011;57190;47.918;8.112;2023-05-07T12:53:05;2.33;;;1.50;;
69906;SDS011;57190;47.918;8.112;2023-05-07T12:55:32;1.67;;;1.58;;
69906;SDS011;57190;47.918;8.112;2023-05-07T12:58:14;1.83;;;1.33;;
69906;SDS011;57190;47.918;8.112;2023-05-07T13:00:41;1.45;;;1.10;;
69906;SDS011;57190;47.918;8.112;2023-05-07T13:03:08;3.42;;;1.50;;
69906;SDS011;57190;47.918;8.112;2023-05-07T13:05:34;2.00;;;1.75;;
69906;SDS011;57190;47.918;8.112;2023-05-07T13:08:00;1.98;;;1.63;;
69906;SDS011;57190;47.918;8.112;2023-05-07T13:10:27;2.63;;;1.67;;
69906;SDS011;57190;47.918;8.112;2023-05-07T13:12:53;2.65;;;1.70;;
69906;SDS011;57190;47.918;8.112;2023-05-07T13:15:19;1.50;;;1.40;;
69906;SDS011;57190;47.918;8.112;2023-05-07T13:17:45;2.20;;;2.00;;
69906;SDS011;57190;47.918;8.112;2023-05-07T13:20:10;2.10;;;1.88;;
69906;SDS011;57190;47.918;8.112;2023-05-07T13:22:37;1.50;;;1.40;;
69906;SDS011;57190;47.918;8.112;2023-05-07T13:25:04;1.60;;;1.50;;
69906;SDS011;57190;47.918;8.112;2023-05-07T13:27:30;4.68;;;2.22;;
69906;SDS011;57190;47.918;8.112;2023-05-07T13:29:57;5.22;;;2.67;;
69906;SDS011;57190;47.918;8.112;2023-05-07T13:36:03;4.25;;;2.30;;
69906;SDS011;57190;47.918;8.112;2023-05-07T13:38:30;2.05;;;1.88;;
69906;SDS011;57190;47.918;8.112;2023-05-07T13:40:56;3.38;;;1.30;;
69906;SDS011;57190;47.918;8.112;2023-05-07T13:43:22;2.75;;;1.15;;
69906;SDS011;57190;47.918;8.112;2023-05-07T13:45:47;3.25;;;1.00;;
69906;SDS011;57190;47.918;8.112;2023-05-07T13:48:13;2.97;;;1.20;;
69906;SDS011;57190;47.918;8.112;2023-05-07T13:50:38;2.33;;;1.10;;
69906;SDS011;57190;47.918;8.112;2023-05-07T13:53:03;0.95;;;0.95;;
69906;SDS011;57190;47.918;8.112;2023-05-07T13:55:30;0.82;;;0.75;;
69906;SDS011;57190;47.918;8.112;2023-05-07T13:57:56;1.63;;;1.00;;
69906;SDS011;57190;47.918;8.112;2023-05-07T14:00:24;1.88;;;1.10;;
69906;SDS011;57190;47.918;8.112;2023-05-07T14:02:50;1.48;;;1.00;;
69906;SDS011;57190;47.918;8.112;2023-05-07T14:05:16;2.65;;;1.25;;
69906;SDS011;57190;47.918;8.112;2023-05-07T14:07:41;0.98;;;0.90;;
69906;SDS011;57190;47.918;8.112;2023-05-07T14:10:07;1.02;;;0.82;;
69906;SDS011;57190;47.918;8.112;2023-05-07T14:12:34;2.15;;;1.15;;
69906;SDS011;57190;47.918;8.112;2023-05-07T14:15:00;1.08;;;1.00;;
69906;SDS011;57190;47.918;8.112;2023-05-07T14:20:12;1.90;;;1.77;;
69906;SDS011;57190;47.918;8.112;2023-05-07T14:22:37;2.67;;;1.50;;
69906;SDS011;57190;47.918;8.112;2023-05-07T14:25:04;1.48;;;1.38;;
69906;SDS011;57190;47.918;8.112;2023-05-07T14:27:30;1.67;;;1.58;;
69906;SDS011;57190;47.918;8.112;2023-05-07T14:29:55;2.28;;;1.52;;
69906;SDS011;57190;47.918;8.112;2023-05-07T14:32:21;1.40;;;1.30;;
69906;SDS011;57190;47.918;8.112;2023-05-07T14:34:47;1.35;;;1.25;;
69906;SDS011;57190;47.918;8.112;2023-05-07T14:37:13;1.40;;;1.30;;
69906;SDS011;57190;47.918;8.112;2023-05-07T14:39:38;1.20;;;1.10;;
69906;SDS011;57190;47.918;8.112;2023-05-07T14:42:04;1.80;;;1.58;;
69906;SDS011;57190;47.918;8.112;2023-05-07T14:44:30;1.42;;;1.30;;
69906;SDS011;57190;47.918;8.112;2023-05-07T14:46:56;1.00;;;1.00;;
69906;SDS011;57190;47.918;8.112;2023-05-07T14:49:21;1.05;;;0.95;;
69906;SDS011;57190;47.918;8.112;2023-05-07T14:51:47;0.85;;;0.80;;
69906;SDS011;57190;47.918;8.112;2023-05-07T14:54:13;0.70;;;0.70;;
69906;SDS011;57190;47.918;8.112;2023-05-07T14:56:39;1.00;;;1.00;;
69906;SDS011;57190;47.918;8.112;2023-05-07T14:59:05;1.02;;;0.93;;
69906;SDS011;57190;47.918;8.112;2023-05-07T15:01:32;2.38;;;1.10;;
69906;SDS011;57190;47.918;8.112;2023-05-07T15:03:59;0.90;;;0.90;;
69906;SDS011;57190;47.918;8.112;2023-05-07T15:06:24;1.60;;;1.50;;
69906;SDS011;57190;47.918;8.112;2023-05-07T15:08:51;2.00;;;1.10;;
69906;SDS011;57190;47.918;8.112;2023-05-07T15:11:17;1.85;;;1.60;;
69906;SDS011;57190;47.918;8.112;2023-05-07T15:13:42;1.38;;;1.27;;
69906;SDS011;57190;47.918;8.112;2023-05-07T15:16:08;1.42;;;1.27;;